sensor_id;sensor_type;location;lat;lon;timestamp;pressure;altitude;pressure_sealevel;temperature;humidity
9672;BME280;4874;43.568;27.824;2023-08-21T00:01:34;98945.41;;;23.73;100.00
9672;BME280;4874;43.568;27.824;2023-08-21T00:04:01;98937.69;;;24.06;100.00
9672;BME280;4874;43.568;27.824;2023-08-21T00:06:28;98937.31;;;24.02;100.00
9672;BME280;4874;43.568;27.824;2023-08-21T00:08:55;98941.22;;;23.88;100.00
9672;BME280;4874;43.568;27.824;2023-08-21T00:11:21;98937.41;;;23.78;100.00
9672;BME280;4874;43.568;27.824;2023-08-21T00:13:48;98934.25;;;24.10;100.00
9672;BME280;4874;43.568;27.824;2023-08-21T00:16:16;98940.06;;;23.66;100.00
9672;BME280;4874;43.568;27.824;2023-08-21T00:18:44;98947.06;;;23.19;100.00
9672;BME280;4874;43.568;27.824;2023-08-21T00:21:11;98941.66;;;23.01;100.00
9672;BME280;4874;43.568;27.824;2023-08-21T00:23:37;98938.50;;;22.80;100.00
9672;BME280;4874;43.568;27.824;2023-08-21T00:26:05;98936.09;;;23.51;100.00
9672;BME280;4874;43.568;27.824;2023-08-21T00:28:31;98951.75;;;23.67;100.00
9672;BME280;4874;43.568;27.824;2023-08-21T00:31:00;98946.75;;;23.64;100.00
9672;BME280;4874;43.568;27.824;2023-08-21T00:33:28;98946.44;;;23.17;100.00
9672;BME280;4874;43.568;27.824;2023-08-21T00:35:55;98906.25;;;22.78;100.00
9672;BME280;4874;43.568;27.824;2023-08-21T00:38:22;98946.44;;;23.17;100.00
9672;BME280;4874;43.568;27.824;2023-08-21T00:40:50;98939.63;;;23.15;100.00
9672;BME280;4874;43.568;27.824;2023-08-21T00:43:17;98949.34;;;23.22;100.00
9672;BME280;4874;43.568;27.824;2023-08-21T00:45:45;98902.31;;;23.17;100.00
9672;BME280;4874;43.568;27.824;2023-08-21T00:48:14;98944.53;;;23.43;100.00
9672;BME280;4874;43.568;27.824;2023-08-21T00:50:41;98940.25;;;23.53;100.00
9672;BME280;4874;43.568;27.824;2023-08-21T00:53:08;98939.69;;;23.63;100.00
9672;BME280;4874;43.568;27.824;2023-08-21T00:55:35;98947.97;;;23.68;100.00
9672;BME280;4874;43.568;27.824;2023-08-21T00:58:04;98937.59;;;23.65;100.00
9672;BME280;4874;43.568;27.824;2023-08-21T01:00:32;98939.66;;;23.51;100.00
9672;BME280;4874;43.568;27.824;2023-08-21T01:03:00;98943.44;;;23.80;100.00
9672;BME280;4874;43.568;27.824;2023-08-21T01:05:27;98937.53;;;24.01;100.00
9672;BME280;4874;43.568;27.824;2023-08-21T01:08:03;98919.72;;;24.05;100.00
9672;BME280;4874;43.568;27.824;2023-08-21T01:13:28;98927.66;;;23.59;100.00
9672;BME280;4874;43.568;27.824;2023-08-21T01:15:58;98949.97;;;23.43;100.00
9672;BME280;4874;43.568;27.824;2023-08-21T01:18:26;98944.28;;;23.62;100.00
9672;BME280;4874;43.568;27.824;2023-08-21T01:20:55;98910.50;;;23.65;100.00
9672;BME280;4874;43.568;27.824;2023-08-21T01:23:38;98938.97;;;23.38;100.00
9672;BME280;4874;43.568;27.824;2023-08-21T01:26:05;98940.78;;;23.62;100.00
9672;BME280;4874;43.568;27.824;2023-08-21T01:28:32;98921.31;;;23.65;100.00
9672;BME280;4874;43.568;27.824;2023-08-21T01:31:05;98941.28;;;23.70;100.00
9672;BME280;4874;43.568;27.824;2023-08-21T01:33:35;98912.69;;;23.38;100.00
9672;BME280;4874;43.568;27.824;2023-08-21T01:36:04;98933.59;;;23.67;100.00
9672;BME280;4874;43.568;27.824;2023-08-21T01:38:33;98940.25;;;24.01;100.00
9672;BME280;4874;43.568;27.824;2023-08-21T01:40:59;98946.38;;;23.78;100.00
9672;BME280;4874;43.568;27.824;2023-08-21T01:43:26;98941.69;;;23.85;100.00
9672;BME280;4874;43.568;27.824;2023-08-21T01:45:54;98944.09;;;23.46;100.00
9672;BME280;4874;43.568;27.824;2023-08-21T01:48:21;98947.41;;;23.48;100.00
9672;BME280;4874;43.568;27.824;2023-08-21T01:50:48;98955.13;;;23.62;100.00
9672;BME280;4874;43.568;27.824;2023-08-21T01:53:15;98957.47;;;23.59;100.00
9672;BME280;4874;43.568;27.824;2023-08-21T01:55:41;98959.81;;;23.19;100.00
9672;BME280;4874;43.568;27.824;2023-08-21T01:58:08;98958.22;;;23.29;100.00
9672;BME280;4874;43.568;27.824;2023-08-21T02:00:35;98957.13;;;23.37;100.00
9672;BME280;4874;43.568;27.824;2023-08-21T02:03:02;98963.00;;;23.82;100.00
9672;BME280;4874;43.568;27.824;2023-08-21T02:05:28;98962.69;;;23.60;100.00
9672;BME280;4874;43.568;27.824;2023-08-21T02:07:55;98960.63;;;23.74;100.00
9672;BME280;4874;43.568;27.824;2023-08-21T02:10:22;98965.72;;;23.82;100.00
9672;BME280;4874;43.568;27.824;2023-08-21T02:12:49;98959.66;;;23.50;100.00
9672;BME280;4874;43.568;27.824;2023-08-21T02:15:16;98969.38;;;23.58;100.00
9672;BME280;4874;43.568;27.824;2023-08-21T02:17:42;98969.22;;;23.53;100.00
9672;BME280;4874;43.568;27.824;2023-08-21T02:20:10;98961.41;;;23.45;100.00
9672;BME280;4874;43.568;27.824;2023-08-21T02:22:37;98953.34;;;23.38;100.00
9672;BME280;4874;43.568;27.824;2023-08-21T02:25:04;98924.69;;;23.31;100.00
9672;BME280;4874;43.568;27.824;2023-08-21T02:27:31;98962.75;;;23.36;100.00
9672;BME280;4874;43.568;27.824;2023-08-21T02:29:58;98972.09;;;23.40;100.00
9672;BME280;4874;43.568;27.824;2023-08-21T02:32:25;98971.25;;;23.75;100.00
9672;BME280;4874;43.568;27.824;2023-08-21T02:34:51;98975.97;;;23.25;100.00
9672;BME280;4874;43.568;27.824;2023-08-21T02:37:18;98969.69;;;23.32;100.00
9672;BME280;4874;43.568;27.824;2023-08-21T02:39:45;98966.22;;;23.43;100.00
9672;BME280;4874;43.568;27.824;2023-08-21T02:42:12;98968.31;;;23.41;100.00
9672;BME280;4874;43.568;27.824;2023-08-21T02:44:38;98973.06;;;23.63;100.00
9672;BME280;4874;43.568;27.824;2023-08-21T02:47:05;98976.53;;;23.52;100.00
9672;BME280;4874;43.568;27.824;2023-08-21T02:49:32;98960.75;;;23.06;100.00
9672;BME280;4874;43.568;27.824;2023-08-21T02:51:59;98965.09;;;23.32;100.00
9672;BME280;4874;43.568;27.824;2023-08-21T02:54:25;98977.00;;;23.24;100.00
9672;BME280;4874;43.568;27.824;2023-08-21T02:56:52;98977.09;;;23.00;100.00
9672;BME280;4874;43.568;27.824;2023-08-21T02:59:19;98976.81;;;23.62;100.00
9672;BME280;4874;43.568;27.824;2023-08-21T03:01:46;98974.75;;;23.21;100.00
9672;BME280;4874;43.568;27.824;2023-08-21T03:04:12;98977.31;;;23.16;100.00
9672;BME280;4874;43.568;27.824;2023-08-21T03:06:39;98973.53;;;23.17;100.00
9672;BME280;4874;43.568;27.824;2023-08-21T03:09:06;98970.91;;;23.11;100.00
9672;BME280;4874;43.568;27.824;2023-08-21T03:11:33;98971.97;;;23.10;100.00
9672;BME280;4874;43.568;27.824;2023-08-21T03:13:59;98970.25;;;23.15;100.00
9672;BME280;4874;43.568;27.824;2023-08-21T03:16:26;98973.72;;;23.22;100.00
9672;BME280;4874;43.568;27.824;2023-08-21T03:18:59;98980.63;;;23.18;100.00
9672;BME280;4874;43.568;27.824;2023-08-21T03:21:27;98979.03;;;23.11;100.00
9672;BME280;4874;43.568;27.824;2023-08-21T03:23:55;98977.00;;;23.24;100.00
9672;BME280;4874;43.568;27.824;2023-08-21T03:26:23;98972.47;;;23.43;100.00
9672;BME280;4874;43.568;27.824;2023-08-21T03:28:50;98975.63;;;23.40;100.00
9672;BME280;4874;43.568;27.824;2023-08-21T03:31:17;98971.66;;;23.43;100.00
9672;BME280;4874;43.568;27.824;2023-08-21T03:33:44;98984.59;;;22.98;100.00
9672;BME280;4874;43.568;27.824;2023-08-21T03:36:11;98990.31;;;23.33;100.00
9672;BME280;4874;43.568;27.824;2023-08-21T03:38:37;98987.69;;;23.19;100.00
9672;BME280;4874;43.568;27.824;2023-08-21T03:41:04;98988.25;;;23.28;100.00
9672;BME280;4874;43.568;27.824;2023-08-21T03:43:32;98985.59;;;23.21;100.00
9672;BME280;4874;43.568;27.824;2023-08-21T03:45:58;98979.22;;;23.52;100.00
9672;BME280;4874;43.568;27.824;2023-08-21T03:48:25;98986.31;;;23.53;100.00
9672;BME280;4874;43.568;27.824;2023-08-21T03:50:52;98994.59;;;23.58;100.00
9672;BME280;4874;43.568;27.824;2023-08-21T03:53:19;98982.56;;;23.36;100.00
9672;BME280;4874;43.568;27.824;2023-08-21T03:55:45;98997.69;;;23.44;100.00
9672;BME280;4874;43.568;27.824;2023-08-21T03:58:13;98997.97;;;23.54;100.00
9672;BME280;4874;43.568;27.824;2023-08-21T04:00:40;98996.88;;;23.43;100.00
9672;BME280;4874;43.568;27.824;2023-08-21T04:03:07;98992.03;;;23.63;100.00
9672;BME280;4874;43.568;27.824;2023-08-21T04:05:34;98993.56;;;23.41;100.00
9672;BME280;4874;43.568;27.824;2023-08-21T04:08:00;98996.44;;;23.76;100.00
9672;BME280;4874;43.568;27.824;2023-08-21T04:10:27;98980.50;;;23.68;100.00
9672;BME280;4874;43.568;27.824;2023-08-21T04:12:54;98997.53;;;23.57;100.00
9672;BME280;4874;43.568;27.824;2023-08-21T04:15:20;99003.41;;;23.54;100.00
9672;BME280;4874;43.568;27.824;2023-08-21T04:17:47;99003.25;;;23.49;100.00
9672;BME280;4874;43.568;27.824;2023-08-21T04:20:14;98997.59;;;23.68;100.00
9672;BME280;4874;43.568;27.824;2023-08-21T04:22:41;99002.03;;;23.81;100.00
9672;BME280;4874;43.568;27.824;2023-08-21T04:25:08;99002.47;;;23.78;100.00
9672;BME280;4874;43.568;27.824;2023-08-21T04:27:35;99009.09;;;23.82;100.00
9672;BME280;4874;43.568;27.824;2023-08-21T04:30:02;99010.00;;;23.76;100.00
9672;BME280;4874;43.568;27.824;2023-08-21T04:32:28;99011.75;;;23.70;100.00
9672;BME280;4874;43.568;27.824;2023-08-21T04:34:55;99011.69;;;23.77;100.00
9672;BME280;4874;43.568;27.824;2023-08-21T04:37:23;99011.34;;;23.85;100.00
9672;BME280;4874;43.568;27.824;2023-08-21T04:39:51;99002.47;;;23.96;100.00
9672;BME280;4874;43.568;27.824;2023-08-21T04:42:18;99007.53;;;23.74;100.00
9672;BME280;4874;43.568;27.824;2023-08-21T04:44:45;99006.25;;;23.77;100.00
9672;BME280;4874;43.568;27.824;2023-08-21T04:47:41;99011.22;;;23.98;100.00
9672;BME280;4874;43.568;27.824;2023-08-21T04:50:08;99005.78;;;23.80;100.00
9672;BME280;4874;43.568;27.824;2023-08-21T04:52:35;99009.41;;;23.92;100.00
9672;BME280;4874;43.568;27.824;2023-08-21T04:55:02;99007.66;;;23.79;100.00
9672;BME280;4874;43.568;27.824;2023-08-21T04:57:29;99006.72;;;23.74;100.00
9672;BME280;4874;43.568;27.824;2023-08-21T04:59:56;99012.44;;;23.84;100.00
9672;BME280;4874;43.568;27.824;2023-08-21T05:02:22;99014.09;;;24.03;100.00
9672;BME280;4874;43.568;27.824;2023-08-21T05:04:49;99012.81;;;24.17;100.00
9672;BME280;4874;43.568;27.824;2023-08-21T05:07:16;99008.81;;;23.72;100.00
9672;BME280;4874;43.568;27.824;2023-08-21T05:09:43;99014.13;;;24.14;100.00
9672;BME280;4874;43.568;27.824;2023-08-21T05:12:09;99003.16;;;24.09;100.00
9672;BME280;4874;43.568;27.824;2023-08-21T05:14:36;99005.25;;;24.07;100.00
9672;BME280;4874;43.568;27.824;2023-08-21T05:17:03;99011.00;;;23.99;100.00
9672;BME280;4874;43.568;27.824;2023-08-21T05:19:30;99006.44;;;23.93;100.00
9672;BME280;4874;43.568;27.824;2023-08-21T05:21:57;99007.03;;;24.13;100.00
9672;BME280;4874;43.568;27.824;2023-08-21T05:24:24;98953.00;;;23.82;100.00
9672;BME280;4874;43.568;27.824;2023-08-21T05:26:51;99011.59;;;24.31;100.00
9672;BME280;4874;43.568;27.824;2023-08-21T05:29:17;99012.88;;;24.28;100.00
9672;BME280;4874;43.568;27.824;2023-08-21T05:31:44;99016.50;;;24.22;100.00
9672;BME280;4874;43.568;27.824;2023-08-21T05:34:11;99019.19;;;24.40;100.00
9672;BME280;4874;43.568;27.824;2023-08-21T05:36:38;99015.03;;;24.38;100.00
9672;BME280;4874;43.568;27.824;2023-08-21T05:39:05;99014.00;;;24.39;100.00
9672;BME280;4874;43.568;27.824;2023-08-21T05:41:32;99016.50;;;24.52;100.00
9672;BME280;4874;43.568;27.824;2023-08-21T05:43:59;99016.66;;;24.69;100.00
9672;BME280;4874;43.568;27.824;2023-08-21T05:46:26;99023.91;;;24.75;100.00
9672;BME280;4874;43.568;27.824;2023-08-21T05:48:53;99010.19;;;24.70;100.00
9672;BME280;4874;43.568;27.824;2023-08-21T05:51:20;99016.56;;;24.75;100.00
9672;BME280;4874;43.568;27.824;2023-08-21T05:53:47;98979.94;;;24.66;100.00
9672;BME280;4874;43.568;27.824;2023-08-21T05:56:14;99019.09;;;25.97;100.00
9672;BME280;4874;43.568;27.824;2023-08-21T05:58:40;99015.56;;;25.57;100.00
9672;BME280;4874;43.568;27.824;2023-08-21T06:01:07;99000.34;;;25.84;100.00
9672;BME280;4874;43.568;27.824;2023-08-21T06:03:34;99006.22;;;26.04;100.00
9672;BME280;4874;43.568;27.824;2023-08-21T06:06:01;99004.56;;;25.92;100.00
9672;BME280;4874;43.568;27.824;2023-08-21T06:08:28;99012.09;;;26.41;100.00
9672;BME280;4874;43.568;27.824;2023-08-21T06:10:54;99019.69;;;26.55;100.00
9672;BME280;4874;43.568;27.824;2023-08-21T06:13:21;98992.13;;;26.52;100.00
9672;BME280;4874;43.568;27.824;2023-08-21T06:15:48;99019.06;;;26.65;100.00
9672;BME280;4874;43.568;27.824;2023-08-21T06:18:15;99025.88;;;26.96;100.00
9672;BME280;4874;43.568;27.824;2023-08-21T06:20:42;99024.06;;;27.01;100.00
9672;BME280;4874;43.568;27.824;2023-08-21T06:23:10;99028.34;;;26.97;100.00
9672;BME280;4874;43.568;27.824;2023-08-21T06:25:37;99027.53;;;27.30;100.00
9672;BME280;4874;43.568;27.824;2023-08-21T06:28:04;99024.19;;;27.44;100.00
9672;BME280;4874;43.568;27.824;2023-08-21T06:30:31;99008.59;;;27.61;100.00
9672;BME280;4874;43.568;27.824;2023-08-21T06:32:58;99024.69;;;28.01;100.00
9672;BME280;4874;43.568;27.824;2023-08-21T06:35:24;99005.16;;;28.09;100.00
9672;BME280;4874;43.568;27.824;2023-08-21T06:37:51;99033.94;;;28.22;100.00
9672;BME280;4874;43.568;27.824;2023-08-21T06:40:18;99003.47;;;27.87;100.00
9672;BME280;4874;43.568;27.824;2023-08-21T06:42:45;99023.00;;;28.43;100.00
9672;BME280;4874;43.568;27.824;2023-08-21T06:45:11;99034.13;;;28.37;100.00
9672;BME280;4874;43.568;27.824;2023-08-21T06:47:38;99029.91;;;28.51;100.00
9672;BME280;4874;43.568;27.824;2023-08-21T06:50:06;99031.59;;;28.83;100.00
9672;BME280;4874;43.568;27.824;2023-08-21T06:52:33;99039.78;;;29.10;100.00
9672;BME280;4874;43.568;27.824;2023-08-21T06:55:00;99048.38;;;28.97;100.00
9672;BME280;4874;43.568;27.824;2023-08-21T06:57:27;99030.28;;;28.91;100.00
9672;BME280;4874;43.568;27.824;2023-08-21T06:59:54;99036.22;;;29.10;100.00
9672;BME280;4874;43.568;27.824;2023-08-21T07:02:20;99035.28;;;29.31;100.00
9672;BME280;4874;43.568;27.824;2023-08-21T07:04:47;99042.88;;;29.65;99.40
9672;BME280;4874;43.568;27.824;2023-08-21T07:07:14;99034.09;;;29.63;99.97
9672;BME280;4874;43.568;27.824;2023-08-21T07:09:41;98949.59;;;29.20;99.78
9672;BME280;4874;43.568;27.824;2023-08-21T07:12:07;99041.28;;;29.69;98.24
9672;BME280;4874;43.568;27.824;2023-08-21T07:14:34;99046.59;;;29.86;98.40
9672;BME280;4874;43.568;27.824;2023-08-21T07:17:01;99046.19;;;30.24;97.37
9672;BME280;4874;43.568;27.824;2023-08-21T07:19:27;99046.81;;;30.51;95.48
9672;BME280;4874;43.568;27.824;2023-08-21T07:21:54;99053.88;;;30.27;95.24
9672;BME280;4874;43.568;27.824;2023-08-21T07:24:21;99053.69;;;30.54;94.15
9672;BME280;4874;43.568;27.824;2023-08-21T07:26:48;99049.81;;;30.50;94.90
9672;BME280;4874;43.568;27.824;2023-08-21T07:29:14;99043.28;;;30.56;93.32
9672;BME280;4874;43.568;27.824;2023-08-21T07:31:41;99010.09;;;30.42;92.13
9672;BME280;4874;43.568;27.824;2023-08-21T07:34:08;99035.38;;;31.09;91.05
9672;BME280;4874;43.568;27.824;2023-08-21T07:36:35;99053.22;;;31.12;89.27
9672;BME280;4874;43.568;27.824;2023-08-21T07:39:01;99040.59;;;31.11;88.04
9672;BME280;4874;43.568;27.824;2023-08-21T07:41:28;99052.41;;;31.42;85.23
9672;BME280;4874;43.568;27.824;2023-08-21T07:43:55;99046.84;;;31.67;80.71
9672;BME280;4874;43.568;27.824;2023-08-21T07:46:22;99030.88;;;31.79;79.65
9672;BME280;4874;43.568;27.824;2023-08-21T07:48:50;99039.13;;;31.74;79.72
9672;BME280;4874;43.568;27.824;2023-08-21T07:51:17;99010.59;;;31.65;77.87
9672;BME280;4874;43.568;27.824;2023-08-21T07:53:43;99019.34;;;31.87;78.50
9672;BME280;4874;43.568;27.824;2023-08-21T07:56:10;99029.50;;;31.91;78.49
9672;BME280;4874;43.568;27.824;2023-08-21T07:58:37;99049.16;;;32.18;77.22
9672;BME280;4874;43.568;27.824;2023-08-21T08:01:04;99042.22;;;32.26;74.99
9672;BME280;4874;43.568;27.824;2023-08-21T08:03:31;99043.59;;;32.29;74.84
9672;BME280;4874;43.568;27.824;2023-08-21T08:05:58;99032.81;;;32.47;72.67
9672;BME280;4874;43.568;27.824;2023-08-21T08:08:25;99034.13;;;32.55;73.41
9672;BME280;4874;43.568;27.824;2023-08-21T08:10:52;99036.72;;;32.41;73.94
9672;BME280;4874;43.568;27.824;2023-08-21T08:13:19;99042.91;;;32.62;73.38
9672;BME280;4874;43.568;27.824;2023-08-21T08:15:45;99034.00;;;32.31;73.49
9672;BME280;4874;43.568;27.824;2023-08-21T08:18:12;99040.91;;;32.72;72.56
9672;BME280;4874;43.568;27.824;2023-08-21T08:20:40;99020.78;;;32.77;72.38
9672;BME280;4874;43.568;27.824;2023-08-21T08:23:07;99014.00;;;33.03;70.34
9672;BME280;4874;43.568;27.824;2023-08-21T08:25:33;99036.81;;;33.03;70.96
9672;BME280;4874;43.568;27.824;2023-08-21T08:28:00;99029.25;;;32.85;71.56
9672;BME280;4874;43.568;27.824;2023-08-21T08:30:27;99039.94;;;32.87;71.33
9672;BME280;4874;43.568;27.824;2023-08-21T08:32:54;99029.38;;;33.04;71.44
9672;BME280;4874;43.568;27.824;2023-08-21T08:35:21;99001.69;;;32.90;71.85
9672;BME280;4874;43.568;27.824;2023-08-21T08:37:48;99026.97;;;33.26;70.15
9672;BME280;4874;43.568;27.824;2023-08-21T08:40:15;99030.75;;;33.87;68.48
9672;BME280;4874;43.568;27.824;2023-08-21T08:42:42;99022.97;;;33.42;68.00
9672;BME280;4874;43.568;27.824;2023-08-21T08:45:12;98989.22;;;33.31;67.93
9672;BME280;4874;43.568;27.824;2023-08-21T08:47:40;98947.91;;;33.08;68.02
9672;BME280;4874;43.568;27.824;2023-08-21T08:50:08;99015.19;;;34.20;64.13
9672;BME280;4874;43.568;27.824;2023-08-21T08:52:39;99016.38;;;33.95;63.84
9672;BME280;4874;43.568;27.824;2023-08-21T08:55:07;99017.63;;;34.03;64.73
9672;BME280;4874;43.568;27.824;2023-08-21T08:57:34;99009.84;;;34.28;63.54
9672;BME280;4874;43.568;27.824;2023-08-21T09:00:04;99010.91;;;34.70;60.91
9672;BME280;4874;43.568;27.824;2023-08-21T09:02:31;99010.81;;;34.19;61.74
9672;BME280;4874;43.568;27.824;2023-08-21T09:04:58;98967.53;;;34.01;60.41
9672;BME280;4874;43.568;27.824;2023-08-21T09:07:25;98990.41;;;34.38;60.64
9672;BME280;4874;43.568;27.824;2023-08-21T09:09:52;99006.81;;;34.67;62.01
9672;BME280;4874;43.568;27.824;2023-08-21T09:12:20;98991.94;;;34.82;58.44
9672;BME280;4874;43.568;27.824;2023-08-21T09:14:47;98990.31;;;34.81;56.12
9672;BME280;4874;43.568;27.824;2023-08-21T09:17:14;98998.69;;;34.76;56.91
9672;BME280;4874;43.568;27.824;2023-08-21T09:19:42;98986.78;;;34.62;56.11
9672;BME280;4874;43.568;27.824;2023-08-21T09:22:11;98991.38;;;34.85;55.50
9672;BME280;4874;43.568;27.824;2023-08-21T09:24:40;98991.75;;;34.97;54.43
9672;BME280;4874;43.568;27.824;2023-08-21T09:27:16;98987.22;;;34.69;55.56
9672;BME280;4874;43.568;27.824;2023-08-21T09:29:44;98989.91;;;35.06;54.30
9672;BME280;4874;43.568;27.824;2023-08-21T09:32:12;98990.69;;;34.93;54.13
9672;BME280;4874;43.568;27.824;2023-08-21T09:34:39;98977.34;;;35.00;53.32
9672;BME280;4874;43.568;27.824;2023-08-21T09:37:07;98975.81;;;35.07;53.14
9672;BME280;4874;43.568;27.824;2023-08-21T09:39:35;98974.78;;;35.03;52.97
9672;BME280;4874;43.568;27.824;2023-08-21T09:42:08;98980.09;;;35.00;53.03
9672;BME280;4874;43.568;27.824;2023-08-21T09:44:39;98972.44;;;35.56;51.16
9672;BME280;4874;43.568;27.824;2023-08-21T09:47:11;98979.06;;;35.41;46.61
9672;BME280;4874;43.568;27.824;2023-08-21T09:49:39;98986.59;;;35.22;47.75
9672;BME280;4874;43.568;27.824;2023-08-21T09:52:07;98982.91;;;35.27;46.87
9672;BME280;4874;43.568;27.824;2023-08-21T09:54:41;98981.84;;;35.55;46.69
9672;BME280;4874;43.568;27.824;2023-08-21T09:57:09;98949.16;;;35.30;45.69
9672;BME280;4874;43.568;27.824;2023-08-21T09:59:37;98967.84;;;35.52;47.52
9672;BME280;4874;43.568;27.824;2023-08-21T10:02:06;98964.25;;;35.51;44.74
9672;BME280;4874;43.568;27.824;2023-08-21T10:04:36;98972.75;;;35.55;45.93
9672;BME280;4874;43.568;27.824;2023-08-21T10:07:05;98962.00;;;35.80;45.35
9672;BME280;4874;43.568;27.824;2023-08-21T10:09:34;98967.22;;;35.95;43.99
9672;BME280;4874;43.568;27.824;2023-08-21T10:12:02;98963.53;;;36.00;44.36
9672;BME280;4874;43.568;27.824;2023-08-21T10:14:29;98956.38;;;35.72;45.07
9672;BME280;4874;43.568;27.824;2023-08-21T10:16:56;98951.84;;;35.62;46.37
9672;BME280;4874;43.568;27.824;2023-08-21T10:19:23;98944.47;;;35.85;44.81
9672;BME280;4874;43.568;27.824;2023-08-21T10:21:49;98952.19;;;36.01;44.30
9672;BME280;4874;43.568;27.824;2023-08-21T10:24:42;98949.44;;;35.88;43.56
9672;BME280;4874;43.568;27.824;2023-08-21T10:27:10;98952.47;;;36.13;44.00
9672;BME280;4874;43.568;27.824;2023-08-21T10:29:38;98947.84;;;36.09;43.86
9672;BME280;4874;43.568;27.824;2023-08-21T10:32:05;98950.34;;;35.56;44.11
9672;BME280;4874;43.568;27.824;2023-08-21T10:34:36;98933.94;;;35.73;43.29
9672;BME280;4874;43.568;27.824;2023-08-21T10:37:10;98935.38;;;35.43;44.02
9672;BME280;4874;43.568;27.824;2023-08-21T10:39:54;98932.22;;;35.64;43.17
9672;BME280;4874;43.568;27.824;2023-08-21T10:42:39;98928.88;;;35.39;43.69
9672;BME280;4874;43.568;27.824;2023-08-21T10:45:11;98933.34;;;35.49;42.59
9672;BME280;4874;43.568;27.824;2023-08-21T10:47:38;98931.06;;;35.37;42.42
9672;BME280;4874;43.568;27.824;2023-08-21T10:50:08;98933.00;;;35.10;41.75
9672;BME280;4874;43.568;27.824;2023-08-21T10:52:41;98934.00;;;35.00;41.14
9672;BME280;4874;43.568;27.824;2023-08-21T10:55:15;98925.44;;;35.15;41.65
9672;BME280;4874;43.568;27.824;2023-08-21T10:57:42;98929.53;;;34.86;42.58
9672;BME280;4874;43.568;27.824;2023-08-21T11:00:13;98928.97;;;35.48;42.43
9672;BME280;4874;43.568;27.824;2023-08-21T11:02:43;98926.06;;;35.80;41.84
9672;BME280;4874;43.568;27.824;2023-08-21T11:05:11;98926.47;;;36.01;40.99
9672;BME280;4874;43.568;27.824;2023-08-21T11:07:43;98909.19;;;35.95;40.70
9672;BME280;4874;43.568;27.824;2023-08-21T11:10:14;98920.00;;;36.05;40.93
9672;BME280;4874;43.568;27.824;2023-08-21T11:12:49;98918.50;;;35.99;40.60
9672;BME280;4874;43.568;27.824;2023-08-21T11:15:17;98905.09;;;36.28;41.66
9672;BME280;4874;43.568;27.824;2023-08-21T11:18:00;98911.25;;;36.25;41.22
9672;BME280;4874;43.568;27.824;2023-08-21T11:20:32;98916.78;;;36.12;41.31
9672;BME280;4874;43.568;27.824;2023-08-21T11:23:01;98902.13;;;36.25;40.72
9672;BME280;4874;43.568;27.824;2023-08-21T11:25:29;98909.31;;;36.48;40.23
9672;BME280;4874;43.568;27.824;2023-08-21T11:27:56;98911.59;;;36.32;40.64
9672;BME280;4874;43.568;27.824;2023-08-21T11:30:23;98914.44;;;36.54;39.31
9672;BME280;4874;43.568;27.824;2023-08-21T11:35:33;98902.50;;;35.83;40.72
9672;BME280;4874;43.568;27.824;2023-08-21T11:38:00;98891.91;;;35.63;41.64
9672;BME280;4874;43.568;27.824;2023-08-21T11:40:26;98902.56;;;35.42;41.47
9672;BME280;4874;43.568;27.824;2023-08-21T11:43:00;98903.88;;;35.31;41.39
9672;BME280;4874;43.568;27.824;2023-08-21T11:45:27;98915.84;;;35.40;41.12
9672;BME280;4874;43.568;27.824;2023-08-21T11:47:56;98921.38;;;35.40;41.19
9672;BME280;4874;43.568;27.824;2023-08-21T11:50:23;98902.84;;;35.13;41.20
9672;BME280;4874;43.568;27.824;2023-08-21T11:52:53;98912.94;;;35.04;41.28
9672;BME280;4874;43.568;27.824;2023-08-21T11:55:22;98933.06;;;34.91;42.10
9672;BME280;4874;43.568;27.824;2023-08-21T11:57:49;98925.03;;;34.58;44.42
9672;BME280;4874;43.568;27.824;2023-08-21T12:00:18;98929.63;;;34.30;45.23
9672;BME280;4874;43.568;27.824;2023-08-21T12:02:55;98929.16;;;34.04;46.47
9672;BME280;4874;43.568;27.824;2023-08-21T12:05:23;98892.59;;;33.75;46.98
9672;BME280;4874;43.568;27.824;2023-08-21T12:07:50;98938.00;;;34.01;47.04
9672;BME280;4874;43.568;27.824;2023-08-21T12:10:27;98915.56;;;33.89;46.51
9672;BME280;4874;43.568;27.824;2023-08-21T12:12:55;98940.59;;;33.51;47.65
9672;BME280;4874;43.568;27.824;2023-08-21T12:15:23;98938.06;;;33.54;47.23
9672;BME280;4874;43.568;27.824;2023-08-21T12:17:50;98935.19;;;33.41;46.96
9672;BME280;4874;43.568;27.824;2023-08-21T12:20:16;98944.72;;;33.48;45.98
9672;BME280;4874;43.568;27.824;2023-08-21T12:22:43;98941.13;;;33.53;45.49
9672;BME280;4874;43.568;27.824;2023-08-21T12:25:10;98946.41;;;33.49;45.31
9672;BME280;4874;43.568;27.824;2023-08-21T12:27:37;98948.16;;;33.35;45.53
9672;BME280;4874;43.568;27.824;2023-08-21T12:30:05;98949.69;;;33.22;45.34
9672;BME280;4874;43.568;27.824;2023-08-21T12:32:33;98963.19;;;33.19;46.35
9672;BME280;4874;43.568;27.824;2023-08-21T12:34:59;98967.91;;;33.18;43.99
9672;BME280;4874;43.568;27.824;2023-08-21T12:37:26;98972.00;;;33.21;44.57
9672;BME280;4874;43.568;27.824;2023-08-21T12:39:53;98963.31;;;33.09;44.23
9672;BME280;4874;43.568;27.824;2023-08-21T12:42:20;98940.19;;;32.76;44.88
9672;BME280;4874;43.568;27.824;2023-08-21T12:44:47;98968.81;;;33.09;45.83
9672;BME280;4874;43.568;27.824;2023-08-21T12:47:14;98966.53;;;33.16;46.20
9672;BME280;4874;43.568;27.824;2023-08-21T12:49:40;98977.00;;;33.14;46.48
9672;BME280;4874;43.568;27.824;2023-08-21T12:52:08;98970.16;;;33.11;46.60
9672;BME280;4874;43.568;27.824;2023-08-21T12:54:36;98964.44;;;33.08;47.34
9672;BME280;4874;43.568;27.824;2023-08-21T12:57:03;98856.94;;;32.37;47.30
9672;BME280;4874;43.568;27.824;2023-08-21T12:59:30;98966.94;;;33.04;47.81
9672;BME280;4874;43.568;27.824;2023-08-21T13:01:59;98945.31;;;32.88;48.02
9672;BME280;4874;43.568;27.824;2023-08-21T13:04:27;98951.72;;;33.12;48.47
9672;BME280;4874;43.568;27.824;2023-08-21T13:06:53;98949.88;;;33.02;48.50
9672;BME280;4874;43.568;27.824;2023-08-21T13:09:20;98934.59;;;32.91;48.72
9672;BME280;4874;43.568;27.824;2023-08-21T13:11:47;98957.59;;;33.00;48.95
9672;BME280;4874;43.568;27.824;2023-08-21T13:14:14;98958.38;;;33.06;49.31